DuBois Regional Airport
KDUJ : rendu visible

Aérodrome :











RETROUVEZ-NOUS SUR...

 
LOGIN :

S'inscrire | Disclaimer

   EN    FR    IT 

 









Légende :    VFR   VFR Marginal   IFR   IFR Intensif   IFR Très Intensif
Visi : 
Plafond : 
>= 8 km
>= 3000ft
5 à 8 km
1000 à 3000 ft
1500m à 5 km
500 à 1000 ft
800 à 1500m
200 à 500 ft
< 800m
< 200 ft
Symboles :   Orages  Brouillard  Fortes neiges  Fortes précipitations  Vent > 20 kt






- Altitude de l'aérodrome : 1817 ft
- Code IATA : DUJ


KDUJ - DuBois Regional

DERNIER METAR :
  • 150653Z AUTO 22007KT 10SM CLR M02/M08 A3018 RMK AO2 SLP237 T10221078

METARs EXPIRÉS :
  • 150553Z AUTO 22005KT 10SM CLR M03/M08 A3018 RMK AO2 SLP237 T10281078 10000 21028 56007
  • 150453Z AUTO 22006KT 10SM BKN043 M01/M07 A3019 RMK AO2 SLP238 T10111072 400281056

TAF KDUJ
Valide du 15 à 06h jusqu'au 16 à 06h UTC


150525Z 1506/1606 23006KT P6SM SCT040
FM151600 26010KT P6SM SCT050
FM152300 29007KT P6SM BKN025
FM160000 32007KT P6SM OVC015



MET'MAP, la Météo Aéronautique d'un coup d'oeil ! - Copyright ORBIFLY Décembre 2007 - Disclaimer

ORBIFLY MET'MAP TEAM :

Programmation & Développement : Alexandra Zaïnal
Conception & Développement : Baudouin d'Aumeries
Co-Programmation & Développement : Marc-Olivier Méhu
Soutien technique & logistique : Manuel Goepfert

Contact : metmap@orbifly.com




SOURCES & CREDITS :

   NOAA       Earth
Advisory